sensor_id;sensor_type;location;lat;lon;timestamp;pressure;altitude;pressure_sealevel;temperature;humidity
74079;BME280;62437;51.544;-3.276;2022-09-09T00:00:53;99766.78;;;16.53;52.30
74079;BME280;62437;51.544;-3.276;2022-09-09T00:03:16;99760.63;;;16.34;51.60
74079;BME280;62437;51.544;-3.276;2022-09-09T00:05:44;99767.76;;;16.41;53.09
74079;BME280;62437;51.544;-3.276;2022-09-09T00:08:04;99761.66;;;16.55;51.70
74079;BME280;62437;51.544;-3.276;2022-09-09T00:10:32;99766.14;;;16.78;51.61
74079;BME280;62437;51.544;-3.276;2022-09-09T00:13:01;99771.89;;;16.67;51.75
74079;BME280;62437;51.544;-3.276;2022-09-09T00:15:23;99773.73;;;16.56;52.12
74079;BME280;62437;51.544;-3.276;2022-09-09T00:17:50;99774.03;;;16.44;52.10
74079;BME280;62437;51.544;-3.276;2022-09-09T00:20:14;99772.72;;;16.47;52.12
74079;BME280;62437;51.544;-3.276;2022-09-09T00:22:43;99777.42;;;16.45;52.03
74079;BME280;62437;51.544;-3.276;2022-09-09T00:25:11;99779.49;;;16.36;51.75
74079;BME280;62437;51.544;-3.276;2022-09-09T00:27:34;99778.09;;;16.32;52.05
74079;BME280;62437;51.544;-3.276;2022-09-09T00:29:56;99772.59;;;16.36;52.17
74079;BME280;62437;51.544;-3.276;2022-09-09T00:32:21;99774.03;;;16.35;52.30
74079;BME280;62437;51.544;-3.276;2022-09-09T00:34:49;99771.54;;;15.80;52.26
74079;BME280;62437;51.544;-3.276;2022-09-09T00:37:11;99772.72;;;16.51;51.91
74079;BME280;62437;51.544;-3.276;2022-09-09T00:39:39;99775.50;;;16.26;52.53
74079;BME280;62437;51.544;-3.276;2022-09-09T00:42:13;99783.21;;;16.24;52.42
74079;BME280;62437;51.544;-3.276;2022-09-09T00:44:31;99781.82;;;15.85;53.24
74079;BME280;62437;51.544;-3.276;2022-09-09T00:47:00;99781.92;;;16.03;52.27
74079;BME280;62437;51.544;-3.276;2022-09-09T00:49:26;99783.21;;;16.27;52.38
74079;BME280;62437;51.544;-3.276;2022-09-09T00:51:53;99780.19;;;16.42;52.03
74079;BME280;62437;51.544;-3.276;2022-09-09T00:54:21;99781.97;;;16.26;51.80
74079;BME280;62437;51.544;-3.276;2022-09-09T00:56:38;99782.48;;;16.35;51.86
74079;BME280;62437;51.544;-3.276;2022-09-09T00:59:11;99785.16;;;16.78;51.26
74079;BME280;62437;51.544;-3.276;2022-09-09T01:01:28;99786.07;;;16.17;52.13
74079;BME280;62437;51.544;-3.276;2022-09-09T01:03:54;99787.00;;;16.44;52.03
74079;BME280;62437;51.544;-3.276;2022-09-09T01:06:22;99785.47;;;15.97;52.64
74079;BME280;62437;51.544;-3.276;2022-09-09T01:09:07;99784.92;;;16.29;51.83
74079;BME280;62437;51.544;-3.276;2022-09-09T01:11:16;99788.00;;;16.15;51.92
74079;BME280;62437;51.544;-3.276;2022-09-09T01:13:37;99792.29;;;16.24;51.71
74079;BME280;62437;51.544;-3.276;2022-09-09T01:16:04;99791.61;;;16.35;51.96
74079;BME280;62437;51.544;-3.276;2022-09-09T01:18:28;99793.80;;;16.47;51.68
74079;BME280;62437;51.544;-3.276;2022-09-09T01:20:59;99797.90;;;16.17;51.76
74079;BME280;62437;51.544;-3.276;2022-09-09T01:28:15;99804.11;;;15.83;52.86
74079;BME280;62437;51.544;-3.276;2022-09-09T01:30:38;99806.18;;;16.07;52.66
74079;BME280;62437;51.544;-3.276;2022-09-09T01:33:01;99806.82;;;15.91;52.75
74079;BME280;62437;51.544;-3.276;2022-09-09T01:35:35;99819.02;;;15.98;52.67
74079;BME280;62437;51.544;-3.276;2022-09-09T01:37:52;99821.12;;;15.93;53.06
74079;BME280;62437;51.544;-3.276;2022-09-09T01:40:18;99820.20;;;15.99;52.80
74079;BME280;62437;51.544;-3.276;2022-09-09T01:42:43;99823.20;;;15.91;52.32
74079;BME280;62437;51.544;-3.276;2022-09-09T01:45:10;99825.78;;;16.34;51.57
74079;BME280;62437;51.544;-3.276;2022-09-09T01:47:35;99829.20;;;16.43;51.67
74079;BME280;62437;51.544;-3.276;2022-09-09T01:50:01;99825.12;;;16.50;51.56
74079;BME280;62437;51.544;-3.276;2022-09-09T01:52:26;99827.40;;;16.49;51.52
74079;BME280;62437;51.544;-3.276;2022-09-09T01:54:53;99833.05;;;16.16;52.14
74079;BME280;62437;51.544;-3.276;2022-09-09T01:57:23;99833.81;;;16.29;51.95
74079;BME280;62437;51.544;-3.276;2022-09-09T01:59:57;99834.47;;;16.34;51.82
74079;BME280;62437;51.544;-3.276;2022-09-09T02:02:13;99828.63;;;16.34;52.27
74079;BME280;62437;51.544;-3.276;2022-09-09T02:04:40;99828.49;;;16.40;51.71
74079;BME280;62437;51.544;-3.276;2022-09-09T02:07:00;99824.30;;;16.13;51.20
74079;BME280;62437;51.544;-3.276;2022-09-09T02:09:26;99822.34;;;16.59;51.28
74079;BME280;62437;51.544;-3.276;2022-09-09T02:11:57;99825.97;;;16.52;51.45
74079;BME280;62437;51.544;-3.276;2022-09-09T02:14:23;99827.57;;;16.26;51.82
74079;BME280;62437;51.544;-3.276;2022-09-09T02:16:47;99827.80;;;16.06;52.11
74079;BME280;62437;51.544;-3.276;2022-09-09T02:19:13;99826.79;;;16.10;52.20
74079;BME280;62437;51.544;-3.276;2022-09-09T02:21:35;99829.66;;;16.39;51.34
74079;BME280;62437;51.544;-3.276;2022-09-09T02:24:05;99834.45;;;16.11;51.45
74079;BME280;62437;51.544;-3.276;2022-09-09T02:26:26;99830.96;;;15.82;52.40
74079;BME280;62437;51.544;-3.276;2022-09-09T02:28:54;99839.57;;;15.66;52.70
74079;BME280;62437;51.544;-3.276;2022-09-09T02:31:20;99843.20;;;15.35;54.01
74079;BME280;62437;51.544;-3.276;2022-09-09T02:33:45;99853.41;;;15.24;53.71
74079;BME280;62437;51.544;-3.276;2022-09-09T02:36:10;99855.50;;;15.43;53.62
74079;BME280;62437;51.544;-3.276;2022-09-09T02:38:37;99858.10;;;15.28;54.11
74079;BME280;62437;51.544;-3.276;2022-09-09T02:40:59;99854.40;;;15.25;53.40
74079;BME280;62437;51.544;-3.276;2022-09-09T02:43:25;99857.45;;;15.03;54.02
74079;BME280;62437;51.544;-3.276;2022-09-09T02:45:56;99862.95;;;14.74;54.93
74079;BME280;62437;51.544;-3.276;2022-09-09T02:48:22;99862.66;;;15.25;53.27
74079;BME280;62437;51.544;-3.276;2022-09-09T02:50:48;99863.83;;;15.73;52.57
74079;BME280;62437;51.544;-3.276;2022-09-09T02:53:11;99859.74;;;15.63;52.06
74079;BME280;62437;51.544;-3.276;2022-09-09T02:55:39;99864.79;;;15.26;55.94
74079;BME280;62437;51.544;-3.276;2022-09-09T02:57:59;99869.22;;;15.41;52.13
74079;BME280;62437;51.544;-3.276;2022-09-09T03:00:26;99873.10;;;14.94;53.18
74079;BME280;62437;51.544;-3.276;2022-09-09T03:02:50;99868.16;;;15.09;53.36
74079;BME280;62437;51.544;-3.276;2022-09-09T03:05:16;99876.84;;;14.81;53.77
74079;BME280;62437;51.544;-3.276;2022-09-09T03:07:41;99878.86;;;14.69;54.80
74079;BME280;62437;51.544;-3.276;2022-09-09T03:10:08;99876.31;;;15.10;53.14
74079;BME280;62437;51.544;-3.276;2022-09-09T03:12:33;99883.38;;;14.57;54.17
74079;BME280;62437;51.544;-3.276;2022-09-09T03:14:58;99888.15;;;14.82;54.06
74079;BME280;62437;51.544;-3.276;2022-09-09T03:17:24;99887.93;;;13.97;56.67
74079;BME280;62437;51.544;-3.276;2022-09-09T03:19:50;99891.33;;;14.65;54.84
74079;BME280;62437;51.544;-3.276;2022-09-09T03:22:16;99888.36;;;14.58;54.87
74079;BME280;62437;51.544;-3.276;2022-09-09T03:24:41;99887.69;;;14.70;54.02
74079;BME280;62437;51.544;-3.276;2022-09-09T03:27:09;99889.72;;;14.55;54.41
74079;BME280;62437;51.544;-3.276;2022-09-09T03:29:33;99896.98;;;14.45;54.34
74079;BME280;62437;51.544;-3.276;2022-09-09T03:31:58;99896.63;;;14.28;54.65
74079;BME280;62437;51.544;-3.276;2022-09-09T03:34:24;99898.79;;;13.85;56.58
74079;BME280;62437;51.544;-3.276;2022-09-09T03:36:50;99902.79;;;14.19;54.81
74079;BME280;62437;51.544;-3.276;2022-09-09T03:39:15;99900.70;;;14.29;54.37
74079;BME280;62437;51.544;-3.276;2022-09-09T03:41:41;99900.60;;;13.77;55.92
74079;BME280;62437;51.544;-3.276;2022-09-09T03:44:07;99913.09;;;14.17;54.40
74079;BME280;62437;51.544;-3.276;2022-09-09T03:46:32;99915.03;;;14.35;54.02
74079;BME280;62437;51.544;-3.276;2022-09-09T03:48:58;99920.84;;;14.46;53.91
74079;BME280;62437;51.544;-3.276;2022-09-09T03:51:24;99922.76;;;14.50;53.68
74079;BME280;62437;51.544;-3.276;2022-09-09T03:53:49;99922.38;;;14.61;53.65
74079;BME280;62437;51.544;-3.276;2022-09-09T03:56:15;99920.12;;;14.46;53.06
74079;BME280;62437;51.544;-3.276;2022-09-09T03:58:41;99923.34;;;14.61;52.93
74079;BME280;62437;51.544;-3.276;2022-09-09T04:01:08;99921.51;;;14.56;53.22
74079;BME280;62437;51.544;-3.276;2022-09-09T04:03:32;99921.81;;;14.77;52.88
74079;BME280;62437;51.544;-3.276;2022-09-09T04:05:59;99920.46;;;14.35;53.69
74079;BME280;62437;51.544;-3.276;2022-09-09T04:08:24;99926.90;;;14.22;54.07
74079;BME280;62437;51.544;-3.276;2022-09-09T04:10:49;99931.23;;;14.23;53.68
74079;BME280;62437;51.544;-3.276;2022-09-09T04:13:16;99929.35;;;14.75;53.15
74079;BME280;62437;51.544;-3.276;2022-09-09T04:15:40;99929.64;;;14.92;52.87
74079;BME280;62437;51.544;-3.276;2022-09-09T04:18:06;99927.25;;;15.04;52.50
74079;BME280;62437;51.544;-3.276;2022-09-09T04:20:32;99929.14;;;15.15;52.36
74079;BME280;62437;51.544;-3.276;2022-09-09T04:22:58;99932.28;;;14.87;53.05
74079;BME280;62437;51.544;-3.276;2022-09-09T04:25:23;99933.09;;;14.85;53.17
74079;BME280;62437;51.544;-3.276;2022-09-09T04:27:54;99933.02;;;14.98;52.21
74079;BME280;62437;51.544;-3.276;2022-09-09T04:30:15;99928.66;;;14.45;53.12
74079;BME280;62437;51.544;-3.276;2022-09-09T04:32:40;99924.33;;;14.54;53.03
74079;BME280;62437;51.544;-3.276;2022-09-09T04:35:07;99922.79;;;14.88;52.65
74079;BME280;62437;51.544;-3.276;2022-09-09T04:37:32;99921.68;;;15.22;52.19
74079;BME280;62437;51.544;-3.276;2022-09-09T04:39:58;99925.15;;;14.95;53.42
74079;BME280;62437;51.544;-3.276;2022-09-09T04:42:23;99933.42;;;14.87;52.07
74079;BME280;62437;51.544;-3.276;2022-09-09T04:44:49;99933.52;;;14.71;52.71
74079;BME280;62437;51.544;-3.276;2022-09-09T04:47:17;99936.05;;;14.90;52.71
74079;BME280;62437;51.544;-3.276;2022-09-09T04:49:40;99934.57;;;14.81;52.35
74079;BME280;62437;51.544;-3.276;2022-09-09T04:52:06;99941.77;;;14.61;52.76
74079;BME280;62437;51.544;-3.276;2022-09-09T04:54:32;99946.89;;;14.93;52.12
74079;BME280;62437;51.544;-3.276;2022-09-09T04:56:57;99948.95;;;14.71;52.30
74079;BME280;62437;51.544;-3.276;2022-09-09T04:59:23;99946.69;;;14.50;52.73
74079;BME280;62437;51.544;-3.276;2022-09-09T05:01:49;99945.80;;;14.54;52.66
74079;BME280;62437;51.544;-3.276;2022-09-09T05:04:15;99949.34;;;14.42;52.64
74079;BME280;62437;51.544;-3.276;2022-09-09T05:06:40;99945.59;;;14.53;53.11
74079;BME280;62437;51.544;-3.276;2022-09-09T05:09:06;99944.29;;;14.32;53.75
74079;BME280;62437;51.544;-3.276;2022-09-09T05:11:33;99947.29;;;13.92;54.18
74079;BME280;62437;51.544;-3.276;2022-09-09T05:13:58;99951.69;;;14.20;53.74
74079;BME280;62437;51.544;-3.276;2022-09-09T05:16:24;99949.90;;;14.30;53.21
74079;BME280;62437;51.544;-3.276;2022-09-09T05:18:49;99949.85;;;14.23;54.54
74079;BME280;62437;51.544;-3.276;2022-09-09T05:21:20;99947.37;;;14.19;53.80
74079;BME280;62437;51.544;-3.276;2022-09-09T05:23:41;99951.37;;;14.37;53.41
74079;BME280;62437;51.544;-3.276;2022-09-09T05:26:09;99950.09;;;14.28;53.69
74079;BME280;62437;51.544;-3.276;2022-09-09T05:28:34;99942.86;;;14.00;54.37
74079;BME280;62437;51.544;-3.276;2022-09-09T05:30:58;99946.04;;;13.24;56.05
74079;BME280;62437;51.544;-3.276;2022-09-09T05:33:24;99947.30;;;13.98;54.49
74079;BME280;62437;51.544;-3.276;2022-09-09T05:35:56;99948.12;;;14.09;54.37
74079;BME280;62437;51.544;-3.276;2022-09-09T05:38:14;99953.40;;;13.78;54.57
74079;BME280;62437;51.544;-3.276;2022-09-09T05:40:47;99958.77;;;13.88;54.55
74079;BME280;62437;51.544;-3.276;2022-09-09T05:43:06;99955.50;;;13.81;55.28
74079;BME280;62437;51.544;-3.276;2022-09-09T05:45:32;99953.54;;;13.83;55.36
74079;BME280;62437;51.544;-3.276;2022-09-09T05:47:57;99953.12;;;13.78;54.77
74079;BME280;62437;51.544;-3.276;2022-09-09T05:50:23;99951.27;;;13.97;54.24
74079;BME280;62437;51.544;-3.276;2022-09-09T05:52:49;99956.88;;;14.47;53.17
74079;BME280;62437;51.544;-3.276;2022-09-09T05:55:14;99959.25;;;14.54;52.97
74079;BME280;62437;51.544;-3.276;2022-09-09T05:57:40;99961.36;;;14.35;53.33
74079;BME280;62437;51.544;-3.276;2022-09-09T06:00:07;99968.93;;;14.33;52.85
74079;BME280;62437;51.544;-3.276;2022-09-09T06:02:31;99972.55;;;14.68;52.80
74079;BME280;62437;51.544;-3.276;2022-09-09T06:04:57;99978.07;;;14.45;52.65
74079;BME280;62437;51.544;-3.276;2022-09-09T06:07:23;99977.97;;;14.35;53.01
74079;BME280;62437;51.544;-3.276;2022-09-09T06:09:48;99982.21;;;14.69;52.60
74079;BME280;62437;51.544;-3.276;2022-09-09T06:12:14;99984.61;;;14.22;53.70
74079;BME280;62437;51.544;-3.276;2022-09-09T06:14:39;99984.64;;;14.42;53.49
74079;BME280;62437;51.544;-3.276;2022-09-09T06:17:05;99987.85;;;14.58;53.38
74079;BME280;62437;51.544;-3.276;2022-09-09T06:19:31;99990.47;;;14.76;53.16
74079;BME280;62437;51.544;-3.276;2022-09-09T06:21:56;99996.77;;;14.83;54.00
74079;BME280;62437;51.544;-3.276;2022-09-09T06:24:22;99998.21;;;14.49;54.46
74079;BME280;62437;51.544;-3.276;2022-09-09T06:26:48;99999.88;;;15.29;53.18
74079;BME280;62437;51.544;-3.276;2022-09-09T06:29:14;100002.36;;;15.49;52.78
74079;BME280;62437;51.544;-3.276;2022-09-09T06:31:39;99999.54;;;15.49;52.44
74079;BME280;62437;51.544;-3.276;2022-09-09T06:34:06;100004.14;;;15.82;52.86
74079;BME280;62437;51.544;-3.276;2022-09-09T06:36:31;100003.86;;;15.81;52.43
74079;BME280;62437;51.544;-3.276;2022-09-09T06:38:56;100005.60;;;15.96;52.08
74079;BME280;62437;51.544;-3.276;2022-09-09T06:41:23;100006.19;;;15.94;51.68
74079;BME280;62437;51.544;-3.276;2022-09-09T06:43:47;100002.60;;;16.14;51.49
74079;BME280;62437;51.544;-3.276;2022-09-09T06:46:14;100006.72;;;16.09;52.09
74079;BME280;62437;51.544;-3.276;2022-09-09T06:48:39;100016.20;;;16.04;51.86
74079;BME280;62437;51.544;-3.276;2022-09-09T06:51:06;100017.58;;;16.26;51.50
74079;BME280;62437;51.544;-3.276;2022-09-09T06:53:30;100020.77;;;16.45;51.00
74079;BME280;62437;51.544;-3.276;2022-09-09T06:55:55;100020.67;;;16.32;50.87
74079;BME280;62437;51.544;-3.276;2022-09-09T06:58:21;100022.93;;;16.28;51.38
74079;BME280;62437;51.544;-3.276;2022-09-09T07:00:46;100028.64;;;16.29;51.21
74079;BME280;62437;51.544;-3.276;2022-09-09T07:03:12;100031.23;;;16.21;51.24
74079;BME280;62437;51.544;-3.276;2022-09-09T07:05:38;100034.70;;;16.35;50.91
74079;BME280;62437;51.544;-3.276;2022-09-09T07:08:04;100038.15;;;16.19;51.57
74079;BME280;62437;51.544;-3.276;2022-09-09T07:10:29;100034.97;;;16.71;50.94
74079;BME280;62437;51.544;-3.276;2022-09-09T07:12:55;100036.61;;;16.46;51.08
74079;BME280;62437;51.544;-3.276;2022-09-09T07:15:21;100039.73;;;16.35;51.28
74079;BME280;62437;51.544;-3.276;2022-09-09T07:17:46;100034.80;;;16.38;51.31
74079;BME280;62437;51.544;-3.276;2022-09-09T07:20:12;100036.94;;;16.35;52.28
74079;BME280;62437;51.544;-3.276;2022-09-09T07:22:37;100033.92;;;16.45;51.40
74079;BME280;62437;51.544;-3.276;2022-09-09T07:25:04;100034.56;;;16.28;51.24
74079;BME280;62437;51.544;-3.276;2022-09-09T07:27:29;100033.77;;;16.37;51.43
74079;BME280;62437;51.544;-3.276;2022-09-09T07:29:54;100035.06;;;16.20;52.60
74079;BME280;62437;51.544;-3.276;2022-09-09T07:32:20;100034.68;;;16.68;52.35
74079;BME280;62437;51.544;-3.276;2022-09-09T07:34:46;100033.05;;;16.63;51.81
74079;BME280;62437;51.544;-3.276;2022-09-09T07:37:12;100035.71;;;16.87;51.55
74079;BME280;62437;51.544;-3.276;2022-09-09T07:39:37;100034.92;;;16.25;52.36
74079;BME280;62437;51.544;-3.276;2022-09-09T07:42:03;100041.85;;;17.04;53.11
74079;BME280;62437;51.544;-3.276;2022-09-09T07:44:28;100043.30;;;16.82;52.29
74079;BME280;62437;51.544;-3.276;2022-09-09T07:46:54;100043.70;;;16.59;52.52
74079;BME280;62437;51.544;-3.276;2022-09-09T07:49:20;100049.18;;;16.16;53.92
74079;BME280;62437;51.544;-3.276;2022-09-09T07:51:46;100050.73;;;16.54;52.62
74079;BME280;62437;51.544;-3.276;2022-09-09T07:54:13;100053.23;;;16.55;52.80
74079;BME280;62437;51.544;-3.276;2022-09-09T07:56:37;100054.13;;;16.45;52.63
74079;BME280;62437;51.544;-3.276;2022-09-09T07:59:02;100054.27;;;16.76;52.33
74079;BME280;62437;51.544;-3.276;2022-09-09T08:01:30;100056.17;;;16.52;53.01
74079;BME280;62437;51.544;-3.276;2022-09-09T08:03:55;100054.56;;;16.74;52.61
74079;BME280;62437;51.544;-3.276;2022-09-09T08:06:19;100056.32;;;16.54;52.31
74079;BME280;62437;51.544;-3.276;2022-09-09T08:08:45;100055.10;;;16.65;52.24
74079;BME280;62437;51.544;-3.276;2022-09-09T08:11:13;100057.13;;;17.04;51.45
74079;BME280;62437;51.544;-3.276;2022-09-09T08:13:36;100057.38;;;16.71;51.76
74079;BME280;62437;51.544;-3.276;2022-09-09T08:16:07;100061.54;;;16.79;51.99
74079;BME280;62437;51.544;-3.276;2022-09-09T08:18:27;100067.03;;;16.93;51.67
74079;BME280;62437;51.544;-3.276;2022-09-09T08:20:53;100070.56;;;16.93;52.76
74079;BME280;62437;51.544;-3.276;2022-09-09T08:23:18;100073.44;;;16.89;52.36
74079;BME280;62437;51.544;-3.276;2022-09-09T08:25:44;100078.06;;;16.74;52.08
74079;BME280;62437;51.544;-3.276;2022-09-09T08:28:10;100079.64;;;16.95;52.51
74079;BME280;62437;51.544;-3.276;2022-09-09T08:30:35;100076.38;;;16.80;53.74
74079;BME280;62437;51.544;-3.276;2022-09-09T08:33:01;100083.28;;;17.21;52.31
74079;BME280;62437;51.544;-3.276;2022-09-09T08:35:26;100084.14;;;17.12;51.94
74079;BME280;62437;51.544;-3.276;2022-09-09T08:37:54;100090.31;;;17.46;52.01
74079;BME280;62437;51.544;-3.276;2022-09-09T08:40:21;100090.29;;;17.27;51.92
74079;BME280;62437;51.544;-3.276;2022-09-09T08:42:45;100091.93;;;17.18;51.68
74079;BME280;62437;51.544;-3.276;2022-09-09T08:45:20;100093.57;;;17.61;52.18
74079;BME280;62437;51.544;-3.276;2022-09-09T08:47:42;100095.16;;;17.31;52.28
74079;BME280;62437;51.544;-3.276;2022-09-09T08:50:15;100095.41;;;17.31;52.52
74079;BME280;62437;51.544;-3.276;2022-09-09T08:52:29;100098.91;;;17.12;51.87
74079;BME280;62437;51.544;-3.276;2022-09-09T08:54:54;100096.74;;;17.32;53.81
74079;BME280;62437;51.544;-3.276;2022-09-09T08:57:20;100101.30;;;17.04;52.38
74079;BME280;62437;51.544;-3.276;2022-09-09T08:59:43;100103.44;;;17.42;52.32
74079;BME280;62437;51.544;-3.276;2022-09-09T09:02:15;100106.84;;;17.12;52.81
74079;BME280;62437;51.544;-3.276;2022-09-09T09:04:46;100112.89;;;17.45;52.33
74079;BME280;62437;51.544;-3.276;2022-09-09T09:07:11;100113.78;;;17.44;52.07
74079;BME280;62437;51.544;-3.276;2022-09-09T09:09:31;100116.51;;;17.44;52.56
74079;BME280;62437;51.544;-3.276;2022-09-09T09:11:54;100119.63;;;17.42;52.37
74079;BME280;62437;51.544;-3.276;2022-09-09T09:14:19;100122.29;;;17.27;52.83
74079;BME280;62437;51.544;-3.276;2022-09-09T09:16:48;100124.29;;;17.57;52.60
74079;BME280;62437;51.544;-3.276;2022-09-09T09:19:08;100123.50;;;17.53;51.99
74079;BME280;62437;51.544;-3.276;2022-09-09T09:21:39;100129.01;;;17.59;51.87
74079;BME280;62437;51.544;-3.276;2022-09-09T09:24:01;100130.40;;;17.54;51.99
74079;BME280;62437;51.544;-3.276;2022-09-09T09:26:30;100129.59;;;17.71;52.18
74079;BME280;62437;51.544;-3.276;2022-09-09T09:28:54;100133.43;;;17.24;53.00
74079;BME280;62437;51.544;-3.276;2022-09-09T09:31:18;100134.23;;;17.53;53.63
74079;BME280;62437;51.544;-3.276;2022-09-09T09:33:47;100141.43;;;17.30;53.08
74079;BME280;62437;51.544;-3.276;2022-09-09T09:36:08;100143.48;;;17.34;53.08
74079;BME280;62437;51.544;-3.276;2022-09-09T09:38:34;100145.31;;;17.46;52.62
74079;BME280;62437;51.544;-3.276;2022-09-09T09:40:59;100150.01;;;17.41;53.16
74079;BME280;62437;51.544;-3.276;2022-09-09T09:43:27;100154.96;;;17.32;54.47
74079;BME280;62437;51.544;-3.276;2022-09-09T09:45:50;100157.60;;;17.54;53.24
74079;BME280;62437;51.544;-3.276;2022-09-09T09:48:16;100160.22;;;17.86;52.73
74079;BME280;62437;51.544;-3.276;2022-09-09T09:50:47;100163.01;;;17.76;52.95
74079;BME280;62437;51.544;-3.276;2022-09-09T09:55:34;100165.22;;;17.71;52.73
74079;BME280;62437;51.544;-3.276;2022-09-09T09:58:04;100169.20;;;17.44;55.15
74079;BME280;62437;51.544;-3.276;2022-09-09T10:00:24;100172.15;;;17.71;53.17
74079;BME280;62437;51.544;-3.276;2022-09-09T10:02:50;100173.76;;;18.05;52.27
74079;BME280;62437;51.544;-3.276;2022-09-09T10:05:17;100177.02;;;17.67;53.07
74079;BME280;62437;51.544;-3.276;2022-09-09T10:07:41;100178.40;;;17.72;53.07
74079;BME280;62437;51.544;-3.276;2022-09-09T10:10:13;100179.50;;;17.97;54.75
74079;BME280;62437;51.544;-3.276;2022-09-09T10:12:44;100182.74;;;17.74;53.89
74079;BME280;62437;51.544;-3.276;2022-09-09T10:15:05;100180.46;;;18.51;52.34
74079;BME280;62437;51.544;-3.276;2022-09-09T10:17:27;100182.41;;;17.78;52.08
74079;BME280;62437;51.544;-3.276;2022-09-09T10:19:58;100181.16;;;18.13;52.01
74079;BME280;62437;51.544;-3.276;2022-09-09T10:22:24;100185.83;;;18.61;51.31
74079;BME280;62437;51.544;-3.276;2022-09-09T10:24:54;100182.05;;;17.97;53.92
74079;BME280;62437;51.544;-3.276;2022-09-09T10:27:12;100181.82;;;17.90;52.57
74079;BME280;62437;51.544;-3.276;2022-09-09T10:32:07;100181.05;;;18.35;52.21
74079;BME280;62437;51.544;-3.276;2022-09-09T10:34:34;100182.77;;;18.36;51.89
74079;BME280;62437;51.544;-3.276;2022-09-09T10:36:50;100181.30;;;17.79;54.07
74079;BME280;62437;51.544;-3.276;2022-09-09T10:39:22;100183.67;;;17.93;53.09
74079;BME280;62437;51.544;-3.276;2022-09-09T10:41:46;100183.60;;;18.04;52.32
74079;BME280;62437;51.544;-3.276;2022-09-09T10:44:19;100186.34;;;18.18;52.31
74079;BME280;62437;51.544;-3.276;2022-09-09T10:46:38;100187.52;;;18.18;52.49
74079;BME280;62437;51.544;-3.276;2022-09-09T10:49:07;100187.91;;;18.31;51.90
74079;BME280;62437;51.544;-3.276;2022-09-09T10:51:26;100186.94;;;18.42;53.23
74079;BME280;62437;51.544;-3.276;2022-09-09T10:53:56;100188.88;;;18.34;53.33
74079;BME280;62437;51.544;-3.276;2022-09-09T10:56:15;100191.69;;;18.33;52.66
74079;BME280;62437;51.544;-3.276;2022-09-09T10:58:42;100194.13;;;17.67;54.93
74079;BME280;62437;51.544;-3.276;2022-09-09T11:01:12;100196.78;;;18.08;54.66
74079;BME280;62437;51.544;-3.276;2022-09-09T11:03:31;100200.45;;;17.97;53.74
74079;BME280;62437;51.544;-3.276;2022-09-09T11:05:58;100204.85;;;18.36;53.38
74079;BME280;62437;51.544;-3.276;2022-09-09T11:08:21;100203.48;;;17.92;54.62
74079;BME280;62437;51.544;-3.276;2022-09-09T11:10:51;100201.63;;;18.37;53.05
74079;BME280;62437;51.544;-3.276;2022-09-09T11:13:15;100205.43;;;18.19;52.74
74079;BME280;62437;51.544;-3.276;2022-09-09T11:15:41;100196.67;;;17.83;53.43
74079;BME280;62437;51.544;-3.276;2022-09-09T11:18:06;100205.30;;;17.98;53.78
74079;BME280;62437;51.544;-3.276;2022-09-09T11:20:28;100204.52;;;18.02;53.93
74079;BME280;62437;51.544;-3.276;2022-09-09T11:22:58;100205.70;;;18.21;53.25
74079;BME280;62437;51.544;-3.276;2022-09-09T11:25:25;100207.45;;;17.65;54.33
74079;BME280;62437;51.544;-3.276;2022-09-09T11:28:00;100206.26;;;18.12;54.67
74079;BME280;62437;51.544;-3.276;2022-09-09T11:30:19;100207.09;;;17.79;54.91
74079;BME280;62437;51.544;-3.276;2022-09-09T11:35:11;100211.78;;;17.98;54.30
74079;BME280;62437;51.544;-3.276;2022-09-09T11:40:09;100216.50;;;18.27;52.52
74079;BME280;62437;51.544;-3.276;2022-09-09T11:42:20;100218.64;;;18.30;52.62
74079;BME280;62437;51.544;-3.276;2022-09-09T11:44:44;100221.33;;;18.65;53.68
74079;BME280;62437;51.544;-3.276;2022-09-09T11:47:19;100221.82;;;18.62;53.90
74079;BME280;62437;51.544;-3.276;2022-09-09T11:49:42;100226.23;;;18.53;52.57
74079;BME280;62437;51.544;-3.276;2022-09-09T11:52:11;100226.41;;;18.54;52.85
74079;BME280;62437;51.544;-3.276;2022-09-09T11:54:30;100227.10;;;18.69;53.16
74079;BME280;62437;51.544;-3.276;2022-09-09T11:56:52;100228.02;;;18.43;53.83
74079;BME280;62437;51.544;-3.276;2022-09-09T11:59:21;100227.38;;;18.36;52.99
74079;BME280;62437;51.544;-3.276;2022-09-09T12:01:44;100223.14;;;18.99;52.14
74079;BME280;62437;51.544;-3.276;2022-09-09T12:04:14;100220.10;;;19.26;51.97
74079;BME280;62437;51.544;-3.276;2022-09-09T12:06:42;100219.67;;;18.44;55.02
74079;BME280;62437;51.544;-3.276;2022-09-09T12:09:06;100220.59;;;18.58;54.48
74079;BME280;62437;51.544;-3.276;2022-09-09T12:11:28;100220.58;;;18.99;53.39
74079;BME280;62437;51.544;-3.276;2022-09-09T12:13:54;100215.00;;;19.41;51.45
74079;BME280;62437;51.544;-3.276;2022-09-09T12:16:28;100212.68;;;19.11;54.15
74079;BME280;62437;51.544;-3.276;2022-09-09T12:18:43;100213.50;;;19.31;52.43
74079;BME280;62437;51.544;-3.276;2022-09-09T12:21:15;100220.54;;;18.02;55.28
74079;BME280;62437;51.544;-3.276;2022-09-09T12:23:41;100220.07;;;18.27;55.28
74079;BME280;62437;51.544;-3.276;2022-09-09T12:26:10;100220.33;;;18.86;53.26
74079;BME280;62437;51.544;-3.276;2022-09-09T12:30:58;100225.26;;;19.27;52.51
74079;BME280;62437;51.544;-3.276;2022-09-09T12:33:18;100227.41;;;19.23;53.49
74079;BME280;62437;51.544;-3.276;2022-09-09T12:35:43;100227.47;;;19.16;52.90
74079;BME280;62437;51.544;-3.276;2022-09-09T12:38:13;100229.74;;;19.17;52.89
74079;BME280;62437;51.544;-3.276;2022-09-09T12:40:34;100228.82;;;19.24;53.11
74079;BME280;62437;51.544;-3.276;2022-09-09T12:42:59;100230.43;;;19.71;52.02
74079;BME280;62437;51.544;-3.276;2022-09-09T12:45:26;100228.57;;;19.88;51.83
74079;BME280;62437;51.544;-3.276;2022-09-09T12:47:53;100233.41;;;19.55;52.49
74079;BME280;62437;51.544;-3.276;2022-09-09T12:50:17;100241.41;;;19.65;52.32
74079;BME280;62437;51.544;-3.276;2022-09-09T12:52:41;100247.67;;;19.43;53.13